createdAt,value
2023-04-30T00:01:10.914Z,9.50
2023-04-30T00:03:12.800Z,9.50
2023-04-30T00:05:14.623Z,9.40
2023-04-30T00:07:16.303Z,9.40
2023-04-30T00:09:17.991Z,9.40
2023-04-30T00:11:19.667Z,9.40
2023-04-30T00:13:21.419Z,9.40
2023-04-30T00:15:23.102Z,9.40
2023-04-30T00:17:24.982Z,9.40
2023-04-30T00:19:27.151Z,9.40
2023-04-30T00:21:28.909Z,9.40
2023-04-30T00:23:30.758Z,9.40
2023-04-30T00:25:32.425Z,9.40
2023-04-30T00:27:34.098Z,9.40
2023-04-30T00:29:36.016Z,9.40
2023-04-30T00:31:37.938Z,9.30
2023-04-30T00:33:39.754Z,9.40
2023-04-30T00:35:42.210Z,9.40
2023-04-30T00:37:43.975Z,9.30
2023-04-30T00:39:45.776Z,9.40
2023-04-30T00:41:47.665Z,9.30
2023-04-30T00:43:49.460Z,9.40
2023-04-30T00:45:51.314Z,9.30
2023-04-30T00:47:53.042Z,9.30
2023-04-30T00:49:55.012Z,9.30
2023-04-30T00:51:57.226Z,9.30
2023-04-30T00:54:01.886Z,9.20
2023-04-30T00:56:04.340Z,9.20
2023-04-30T00:58:07.013Z,9.30
2023-04-30T01:00:12.189Z,9.30
2023-04-30T01:02:14.100Z,9.20
2023-04-30T01:04:16.066Z,9.20
2023-04-30T01:06:17.934Z,9.20
2023-04-30T01:08:19.704Z,9.20
2023-04-30T01:10:22.909Z,9.20
2023-04-30T01:12:39.671Z,9.20
2023-04-30T01:14:56.088Z,9.20
2023-04-30T01:17:09.460Z,9.20
2023-04-30T01:19:29.400Z,9.20
2023-04-30T01:21:33.153Z,9.10
2023-04-30T01:23:56.055Z,9.10
2023-04-30T01:26:15.043Z,9.10
2023-04-30T01:28:17.946Z,9.10
2023-04-30T01:30:21.212Z,9.10
2023-04-30T01:32:22.972Z,9.10
2023-04-30T01:34:24.752Z,9.10
2023-04-30T01:37:07.804Z,9.10
2023-04-30T01:39:31.541Z,9.10
2023-04-30T01:42:08.811Z,9.00
2023-04-30T01:44:24.256Z,9.00
2023-04-30T01:46:28.633Z,9.00
2023-04-30T01:49:03.621Z,9.00
2023-04-30T01:51:16.441Z,9.00
2023-04-30T01:53:25.574Z,9.00
2023-04-30T01:55:46.852Z,9.00
2023-04-30T01:58:00.182Z,8.90
2023-04-30T02:00:02.721Z,8.90
2023-04-30T02:02:04.748Z,8.90
2023-04-30T02:04:06.519Z,8.90
2023-04-30T02:06:08.360Z,8.80
2023-04-30T02:08:10.043Z,8.80
2023-04-30T02:10:14.923Z,8.80
2023-04-30T02:12:16.582Z,8.80
2023-04-30T02:14:18.412Z,8.80
2023-04-30T02:16:20.130Z,8.70
2023-04-30T02:18:21.971Z,8.70
2023-04-30T02:20:23.672Z,8.70
2023-04-30T02:22:25.697Z,8.70
2023-04-30T02:24:27.441Z,8.70
2023-04-30T02:26:29.071Z,8.70
2023-04-30T02:28:30.881Z,8.70
2023-04-30T02:30:32.533Z,8.70
2023-04-30T02:32:34.456Z,8.70
2023-04-30T02:34:36.161Z,8.60
2023-04-30T02:36:37.985Z,8.70
2023-04-30T02:38:39.648Z,8.60
2023-04-30T02:40:42.572Z,8.60
2023-04-30T02:42:44.260Z,8.60
2023-04-30T02:44:45.960Z,8.70
2023-04-30T02:46:47.583Z,8.60
2023-04-30T02:48:49.992Z,8.60
2023-04-30T02:50:51.713Z,8.50
2023-04-30T02:52:53.421Z,8.50
2023-04-30T02:54:55.056Z,8.50
2023-04-30T02:56:56.755Z,8.50
2023-04-30T02:58:58.376Z,8.50
2023-04-30T03:01:00.376Z,8.40
2023-04-30T03:03:02.207Z,8.50
2023-04-30T03:05:04.463Z,8.50
2023-04-30T03:07:06.858Z,8.50
2023-04-30T03:09:08.557Z,8.50
2023-04-30T03:11:10.360Z,8.40
2023-04-30T03:13:12.115Z,8.50
2023-04-30T03:15:13.855Z,8.40
2023-04-30T03:17:15.589Z,8.40
2023-04-30T03:19:17.619Z,8.40
2023-04-30T03:21:19.380Z,8.40
2023-04-30T03:23:21.543Z,8.40
2023-04-30T03:25:23.454Z,8.40
2023-04-30T03:27:25.256Z,8.40
2023-04-30T03:29:26.885Z,8.40
2023-04-30T03:31:28.622Z,8.40
2023-04-30T03:33:30.498Z,8.40
2023-04-30T03:35:33.724Z,8.30
2023-04-30T03:37:35.448Z,8.20
2023-04-30T03:39:37.093Z,8.20
2023-04-30T03:41:38.727Z,8.20
2023-04-30T03:43:40.447Z,8.10
2023-04-30T03:45:42.318Z,8.10
2023-04-30T03:47:44.322Z,8.10
2023-04-30T03:49:46.061Z,8.10
2023-04-30T03:51:47.820Z,8.10
2023-04-30T03:53:49.589Z,8.10
2023-04-30T03:55:51.336Z,8.10
2023-04-30T03:57:53.138Z,8.00
2023-04-30T03:59:55.434Z,8.00
2023-04-30T04:01:57.405Z,8.00
2023-04-30T04:03:59.320Z,7.90
2023-04-30T04:06:02.167Z,7.90
2023-04-30T04:08:03.975Z,7.90
2023-04-30T04:10:06.260Z,7.90
2023-04-30T04:12:08.085Z,7.90
2023-04-30T04:14:09.754Z,7.90
2023-04-30T04:16:11.727Z,7.90
2023-04-30T04:18:13.436Z,7.90
2023-04-30T04:20:15.218Z,7.90
2023-04-30T04:22:16.843Z,7.80
2023-04-30T04:24:18.485Z,7.80
2023-04-30T04:26:21.485Z,7.80
2023-04-30T04:28:23.267Z,7.80
2023-04-30T04:30:24.948Z,7.80
2023-04-30T04:32:27.387Z,7.90
2023-04-30T04:34:29.184Z,7.90
2023-04-30T04:36:31.636Z,8.00
2023-04-30T04:38:33.661Z,8.10
2023-04-30T04:40:37.485Z,8.20
2023-04-30T04:42:39.306Z,8.20
2023-04-30T04:44:41.414Z,8.30
2023-04-30T04:46:44.405Z,8.40
2023-04-30T04:48:46.798Z,8.50
2023-04-30T04:50:48.621Z,8.60
2023-04-30T04:52:50.245Z,8.60
2023-04-30T04:54:51.860Z,8.60
2023-04-30T04:56:53.754Z,8.70
2023-04-30T04:58:55.563Z,8.80
2023-04-30T05:00:57.634Z,8.80
2023-04-30T05:02:59.408Z,8.90
2023-04-30T05:05:01.767Z,9.00
2023-04-30T05:07:03.675Z,9.00
2023-04-30T05:09:08.968Z,9.00
2023-04-30T05:11:14.124Z,9.00
2023-04-30T05:13:17.167Z,9.10
2023-04-30T05:15:19.234Z,9.10
2023-04-30T05:17:21.033Z,9.20
2023-04-30T05:19:22.708Z,9.30
2023-04-30T05:21:26.018Z,9.30
2023-04-30T05:23:28.381Z,9.40
2023-04-30T05:25:30.189Z,9.50
2023-04-30T05:27:31.838Z,9.50
2023-04-30T05:29:33.579Z,9.60
2023-04-30T05:31:35.327Z,9.60
2023-04-30T05:33:37.233Z,9.60
2023-04-30T05:35:39.095Z,8.10
2023-04-30T05:37:40.808Z,9.70
2023-04-30T05:39:42.466Z,9.80
2023-04-30T05:41:44.193Z,10.00
2023-04-30T05:43:46.182Z,10.10
2023-04-30T05:45:47.907Z,10.20
2023-04-30T05:47:49.644Z,10.40
2023-04-30T05:49:51.340Z,10.60
2023-04-30T05:51:53.046Z,10.70
2023-04-30T05:53:54.732Z,10.80
2023-04-30T05:55:56.487Z,10.90
2023-04-30T05:57:58.181Z,10.90
2023-04-30T05:59:59.920Z,10.80
2023-04-30T06:02:02.505Z,10.90
2023-04-30T06:04:05.127Z,10.90
2023-04-30T06:06:07.117Z,10.90
2023-04-30T06:08:08.880Z,10.90
2023-04-30T06:10:11.834Z,11.00
2023-04-30T06:12:13.532Z,11.00
2023-04-30T06:14:15.270Z,11.00
2023-04-30T06:16:17.161Z,11.00
2023-04-30T06:18:18.909Z,11.10
2023-04-30T06:20:20.802Z,11.20
2023-04-30T06:22:22.528Z,11.30
2023-04-30T06:24:27.388Z,11.40
2023-04-30T06:26:29.160Z,11.50
2023-04-30T06:28:31.064Z,11.60
2023-04-30T06:30:32.718Z,11.60
2023-04-30T06:32:34.724Z,11.60
2023-04-30T06:34:37.015Z,11.60
2023-04-30T06:36:38.665Z,11.80
2023-04-30T06:38:41.318Z,11.90
2023-04-30T06:40:43.171Z,12.10
2023-04-30T06:42:46.872Z,12.20
2023-04-30T06:44:49.241Z,12.20
2023-04-30T06:46:50.906Z,12.40
2023-04-30T06:48:52.620Z,12.60
2023-04-30T06:50:54.317Z,12.90
2023-04-30T06:52:56.144Z,13.60
2023-04-30T06:54:57.778Z,14.30
2023-04-30T06:56:59.433Z,15.10
2023-04-30T06:59:01.312Z,16.30
2023-04-30T07:01:03.428Z,17.00
2023-04-30T07:03:05.499Z,17.40
2023-04-30T07:05:07.512Z,17.50
2023-04-30T07:07:09.744Z,17.70
2023-04-30T07:09:11.427Z,17.60
2023-04-30T07:11:13.662Z,17.80
2023-04-30T07:13:16.463Z,18.10
2023-04-30T07:15:18.177Z,18.70
2023-04-30T07:17:19.900Z,19.00
2023-04-30T07:19:21.608Z,19.00
2023-04-30T07:21:25.495Z,18.70
2023-04-30T07:23:29.887Z,19.00
2023-04-30T07:25:32.473Z,19.20
2023-04-30T07:27:34.123Z,19.10
2023-04-30T07:29:35.909Z,18.90
2023-04-30T07:31:37.560Z,19.40
2023-04-30T07:33:39.290Z,19.30
2023-04-30T07:35:41.432Z,18.50
2023-04-30T07:37:43.849Z,17.90
2023-04-30T07:39:45.596Z,17.20
2023-04-30T07:41:47.456Z,17.20
2023-04-30T07:43:49.082Z,17.10
2023-04-30T07:45:51.171Z,17.20
2023-04-30T07:47:52.974Z,17.80
2023-04-30T07:49:54.782Z,18.60
2023-04-30T07:51:56.883Z,19.50
2023-04-30T07:53:58.556Z,20.40
2023-04-30T07:56:00.866Z,21.10
2023-04-30T07:58:04.587Z,21.30
2023-04-30T08:00:07.116Z,21.80
2023-04-30T08:02:09.569Z,21.30
2023-04-30T08:04:11.535Z,20.30
2023-04-30T08:06:13.329Z,19.10
2023-04-30T08:08:14.995Z,18.20
2023-04-30T08:10:17.042Z,17.60
2023-04-30T08:12:19.046Z,17.10
2023-04-30T08:14:21.619Z,17.60
2023-04-30T08:16:23.347Z,18.80
2023-04-30T08:18:25.026Z,19.90
2023-04-30T08:20:27.218Z,20.00
2023-04-30T08:22:29.130Z,19.70
2023-04-30T08:24:30.776Z,19.00
2023-04-30T08:26:32.512Z,18.20
2023-04-30T08:28:34.170Z,17.60
2023-04-30T08:30:35.874Z,18.20
2023-04-30T08:32:38.133Z,18.80
2023-04-30T08:34:43.596Z,18.30
2023-04-30T08:36:45.278Z,17.50
2023-04-30T08:38:47.216Z,17.00
2023-04-30T08:41:04.458Z,16.60
2023-04-30T08:43:09.113Z,17.40
2023-04-30T08:45:13.015Z,18.00
2023-04-30T08:47:16.368Z,18.10
2023-04-30T08:49:18.113Z,17.60
2023-04-30T08:51:20.664Z,17.10
2023-04-30T08:53:22.415Z,17.50
2023-04-30T08:55:26.099Z,18.80
2023-04-30T08:57:27.977Z,20.40
2023-04-30T08:59:29.662Z,20.50
2023-04-30T09:01:31.397Z,19.70
2023-04-30T09:03:33.295Z,19.00
2023-04-30T09:05:35.084Z,18.60
2023-04-30T09:07:41.494Z,18.60
2023-04-30T09:09:45.301Z,19.00
2023-04-30T09:11:46.988Z,20.00
2023-04-30T09:13:55.413Z,20.20
2023-04-30T09:15:59.962Z,19.70
2023-04-30T09:18:11.132Z,19.40
2023-04-30T09:20:14.016Z,19.40
2023-04-30T09:22:21.144Z,19.10
2023-04-30T09:24:23.556Z,19.50
2023-04-30T09:26:36.972Z,20.60
2023-04-30T09:28:55.391Z,21.60
2023-04-30T09:30:57.769Z,22.40
2023-04-30T09:32:59.817Z,20.50
2023-04-30T09:35:02.210Z,21.00
2023-04-30T09:37:04.393Z,21.40
2023-04-30T09:39:17.427Z,22.10
2023-04-30T09:41:27.404Z,22.20
2023-04-30T09:43:29.838Z,22.00
2023-04-30T09:45:47.355Z,21.40
2023-04-30T09:47:49.290Z,20.80
2023-04-30T09:49:52.349Z,19.80
2023-04-30T09:52:03.423Z,19.50
2023-04-30T09:54:07.809Z,19.00
2023-04-30T09:56:12.967Z,18.70
2023-04-30T09:58:16.634Z,18.20
2023-04-30T10:00:19.911Z,17.70
2023-04-30T10:02:24.048Z,17.30
2023-04-30T10:04:32.069Z,17.40
2023-04-30T10:06:35.902Z,17.30
2023-04-30T10:08:43.273Z,17.10
2023-04-30T10:10:47.483Z,17.20
2023-04-30T10:12:52.896Z,17.20
2023-04-30T10:15:00.271Z,17.40
2023-04-30T10:17:13.383Z,17.70
2023-04-30T10:19:20.684Z,17.70
2023-04-30T10:21:24.704Z,17.90
2023-04-30T10:23:26.556Z,18.10
2023-04-30T10:25:29.168Z,18.00
2023-04-30T10:27:30.918Z,18.20
2023-04-30T10:29:32.645Z,18.00
2023-04-30T10:31:35.628Z,18.00
2023-04-30T10:33:54.507Z,18.10
2023-04-30T10:36:00.254Z,18.20
2023-04-30T10:38:21.686Z,18.20
2023-04-30T10:40:26.328Z,18.20
2023-04-30T10:42:28.438Z,18.40
2023-04-30T10:44:33.795Z,18.60
2023-04-30T10:46:36.956Z,19.00
2023-04-30T10:48:38.716Z,19.00
2023-04-30T10:50:46.613Z,18.60
2023-04-30T10:53:02.322Z,18.10
2023-04-30T10:55:08.531Z,18.00
2023-04-30T10:57:14.141Z,17.70
2023-04-30T10:59:15.987Z,17.70
2023-04-30T11:01:17.985Z,17.60
2023-04-30T11:03:22.565Z,17.40
2023-04-30T11:05:39.972Z,17.30
2023-04-30T11:07:52.546Z,17.10
2023-04-30T11:09:57.538Z,17.10
2023-04-30T11:12:13.476Z,17.10
2023-04-30T11:14:21.057Z,17.30
2023-04-30T11:16:30.126Z,17.40
2023-04-30T11:18:32.404Z,17.70
2023-04-30T11:20:39.373Z,17.90
2023-04-30T11:22:41.287Z,18.30
2023-04-30T11:25:04.223Z,18.60
2023-04-30T11:27:06.294Z,18.70
2023-04-30T11:29:08.501Z,18.10
2023-04-30T11:31:10.385Z,17.60
2023-04-30T11:33:12.953Z,17.30
2023-04-30T11:35:18.450Z,17.20
2023-04-30T11:37:41.324Z,16.80
2023-04-30T11:39:43.687Z,16.80
2023-04-30T11:41:46.232Z,16.90
2023-04-30T11:43:47.925Z,16.80
2023-04-30T11:46:18.990Z,17.00
2023-04-30T11:48:22.328Z,17.30
2023-04-30T11:50:29.020Z,17.60
2023-04-30T11:52:31.031Z,18.00
2023-04-30T11:54:33.414Z,18.50
2023-04-30T11:56:40.199Z,18.50
2023-04-30T11:58:43.019Z,18.60
2023-04-30T12:00:44.749Z,18.60
2023-04-30T12:02:49.130Z,18.70
2023-04-30T12:04:51.158Z,18.80
2023-04-30T12:06:52.885Z,18.80
2023-04-30T12:08:55.770Z,19.10
2023-04-30T12:10:57.466Z,19.50
2023-04-30T12:12:59.269Z,19.70
2023-04-30T12:15:18.149Z,19.90
2023-04-30T12:17:33.712Z,19.50
2023-04-30T12:19:35.417Z,19.60
2023-04-30T12:21:38.649Z,19.20
2023-04-30T12:23:40.370Z,19.20
2023-04-30T12:25:45.652Z,19.20
2023-04-30T12:27:48.904Z,19.40
2023-04-30T12:29:51.724Z,19.50
2023-04-30T12:31:54.840Z,19.60
2023-04-30T12:33:57.815Z,19.50
2023-04-30T12:35:59.608Z,19.20
2023-04-30T12:38:06.447Z,19.00
2023-04-30T12:40:09.364Z,19.00
2023-04-30T12:42:11.710Z,18.60
2023-04-30T12:44:20.510Z,18.50
2023-04-30T12:46:29.681Z,18.50
2023-04-30T12:48:44.740Z,18.50
2023-04-30T12:50:51.841Z,18.40
2023-04-30T12:52:53.620Z,18.60
2023-04-30T12:54:55.993Z,18.80
2023-04-30T12:57:09.163Z,18.80
2023-04-30T12:59:16.896Z,18.60
2023-04-30T13:01:21.785Z,18.80
2023-04-30T13:03:23.565Z,18.20
2023-04-30T13:05:25.295Z,18.00
2023-04-30T13:07:27.137Z,17.60
2023-04-30T13:09:28.885Z,17.40
2023-04-30T13:11:30.543Z,17.70
2023-04-30T13:13:33.161Z,17.70
2023-04-30T13:15:35.029Z,18.10
2023-04-30T13:17:36.868Z,18.30
2023-04-30T13:19:38.564Z,18.00
2023-04-30T13:21:41.077Z,18.10
2023-04-30T13:23:52.102Z,17.70
2023-04-30T13:25:55.752Z,17.60
2023-04-30T13:27:57.595Z,17.60
2023-04-30T13:30:00.973Z,17.70
2023-04-30T13:32:02.744Z,17.90
2023-04-30T13:34:04.416Z,17.90
2023-04-30T13:36:06.713Z,18.10
2023-04-30T13:38:08.554Z,18.30
2023-04-30T13:40:10.611Z,18.60
2023-04-30T13:42:13.876Z,18.80
2023-04-30T13:44:17.038Z,18.80
2023-04-30T13:46:18.870Z,18.60
2023-04-30T13:48:20.559Z,18.40
2023-04-30T13:50:22.254Z,18.40
2023-04-30T13:52:24.121Z,18.70
2023-04-30T13:54:25.757Z,19.20
2023-04-30T13:56:27.491Z,19.30
2023-04-30T13:58:29.291Z,19.30
2023-04-30T14:00:31.006Z,19.20
2023-04-30T14:02:32.788Z,19.40
2023-04-30T14:04:34.617Z,19.60
2023-04-30T14:06:38.802Z,19.50
2023-04-30T14:08:40.568Z,19.30
2023-04-30T14:10:42.292Z,19.20
2023-04-30T14:12:43.960Z,19.60
2023-04-30T14:14:45.720Z,20.10
2023-04-30T14:16:47.444Z,20.80
2023-04-30T14:18:49.787Z,21.40
2023-04-30T14:20:51.458Z,21.50
2023-04-30T14:22:53.164Z,21.30
2023-04-30T14:24:54.852Z,21.00
2023-04-30T14:26:56.562Z,20.70
2023-04-30T14:28:58.226Z,20.40
2023-04-30T14:30:59.879Z,19.90
2023-04-30T14:33:01.601Z,19.80
2023-04-30T14:35:04.165Z,19.80
2023-04-30T14:37:06.046Z,19.80
2023-04-30T14:39:08.795Z,19.40
2023-04-30T14:41:10.733Z,19.10
2023-04-30T14:43:12.494Z,19.00
2023-04-30T14:45:14.222Z,18.80
2023-04-30T14:47:16.142Z,18.70
2023-04-30T14:49:17.769Z,18.80
2023-04-30T14:51:19.601Z,18.80
2023-04-30T14:53:21.578Z,18.90
2023-04-30T14:55:23.316Z,18.90
2023-04-30T14:57:25.072Z,19.00
2023-04-30T14:59:27.058Z,19.00
2023-04-30T15:01:30.384Z,18.80
2023-04-30T15:03:32.171Z,18.80
2023-04-30T15:05:33.889Z,18.70
2023-04-30T15:07:36.792Z,18.80
2023-04-30T15:09:38.462Z,18.80
2023-04-30T15:11:40.113Z,18.80
2023-04-30T15:13:41.778Z,18.50
2023-04-30T15:15:43.592Z,18.30
2023-04-30T15:17:45.355Z,18.40
2023-04-30T15:19:47.102Z,18.20
2023-04-30T15:21:49.186Z,18.00
2023-04-30T15:23:51.003Z,17.70
2023-04-30T15:25:53.325Z,17.60
2023-04-30T15:27:55.199Z,17.70
2023-04-30T15:29:57.655Z,17.50
2023-04-30T15:31:59.761Z,17.40
2023-04-30T15:34:01.636Z,17.60
2023-04-30T15:36:03.968Z,17.50
2023-04-30T15:38:05.641Z,17.50
2023-04-30T15:40:10.725Z,17.30
2023-04-30T15:42:12.473Z,17.20
2023-04-30T15:44:14.131Z,17.20
2023-04-30T15:46:16.191Z,17.40
2023-04-30T15:48:17.959Z,17.60
2023-04-30T15:50:19.663Z,17.80
2023-04-30T15:52:21.290Z,17.90
2023-04-30T15:54:23.457Z,17.70
2023-04-30T15:56:26.577Z,17.60
2023-04-30T15:58:28.287Z,17.60
2023-04-30T16:00:30.262Z,17.60
2023-04-30T16:02:32.090Z,17.60
2023-04-30T16:04:33.803Z,17.60
2023-04-30T16:06:35.773Z,17.70
2023-04-30T16:08:37.818Z,17.50
2023-04-30T16:10:39.595Z,17.30
2023-04-30T16:12:41.299Z,17.10
2023-04-30T16:14:42.931Z,17.10
2023-04-30T16:16:44.797Z,16.90
2023-04-30T16:18:46.591Z,16.80
2023-04-30T16:20:49.085Z,16.80
2023-04-30T16:22:50.837Z,16.70
2023-04-30T16:24:52.614Z,16.70
2023-04-30T16:26:54.403Z,16.50
2023-04-30T16:28:56.123Z,16.40
2023-04-30T16:30:58.466Z,16.30
2023-04-30T16:33:00.231Z,16.30
2023-04-30T16:35:02.216Z,16.30
2023-04-30T16:37:04.077Z,16.30
2023-04-30T16:39:05.969Z,16.10
2023-04-30T16:41:07.808Z,16.00
2023-04-30T16:43:09.539Z,15.90
2023-04-30T16:45:11.274Z,15.90
2023-04-30T16:47:13.022Z,15.80
2023-04-30T16:49:14.841Z,15.70
2023-04-30T16:51:16.488Z,15.60
2023-04-30T16:53:18.156Z,15.40
2023-04-30T16:55:20.318Z,15.30
2023-04-30T16:57:23.468Z,15.10
2023-04-30T16:59:25.380Z,15.00
2023-04-30T17:01:27.292Z,15.00
2023-04-30T17:03:30.584Z,14.90
2023-04-30T17:05:32.554Z,14.80
2023-04-30T17:07:34.196Z,14.80
2023-04-30T17:09:37.365Z,14.60
2023-04-30T17:11:39.016Z,14.60
2023-04-30T17:13:40.669Z,14.60
2023-04-30T17:15:43.277Z,14.50
2023-04-30T17:17:44.986Z,14.50
2023-04-30T17:19:46.765Z,14.50
2023-04-30T17:21:50.581Z,14.50
2023-04-30T17:23:52.210Z,14.40
2023-04-30T17:25:53.839Z,14.40
2023-04-30T17:27:56.322Z,14.30
2023-04-30T17:29:58.348Z,14.20
2023-04-30T17:32:00.165Z,14.10
2023-04-30T17:34:02.239Z,14.10
2023-04-30T17:36:04.529Z,14.00
2023-04-30T17:38:06.233Z,13.90
2023-04-30T17:40:08.916Z,13.90
2023-04-30T17:42:10.591Z,13.90
2023-04-30T17:44:12.488Z,13.80
2023-04-30T17:46:14.309Z,13.70
2023-04-30T17:48:16.011Z,13.60
2023-04-30T17:50:17.733Z,13.50
2023-04-30T17:52:19.489Z,13.50
2023-04-30T17:54:21.250Z,13.40
2023-04-30T17:56:24.711Z,13.30
2023-04-30T17:58:27.070Z,13.20
2023-04-30T18:00:28.751Z,13.10
2023-04-30T18:02:30.446Z,13.00
2023-04-30T18:04:32.104Z,12.90
2023-04-30T18:06:33.763Z,12.80
2023-04-30T18:08:35.732Z,12.80
2023-04-30T18:10:37.661Z,12.70
2023-04-30T18:12:39.424Z,12.60
2023-04-30T18:14:41.129Z,12.60
2023-04-30T18:16:42.855Z,12.50
2023-04-30T18:18:44.535Z,12.40
2023-04-30T18:20:46.273Z,12.40
2023-04-30T18:22:47.919Z,12.30
2023-04-30T18:24:49.812Z,12.30
2023-04-30T18:26:51.499Z,12.20
2023-04-30T18:28:53.276Z,12.20
2023-04-30T18:30:56.063Z,12.10
2023-04-30T18:32:58.181Z,12.00
2023-04-30T18:34:59.863Z,11.90
2023-04-30T18:37:02.242Z,11.90
2023-04-30T18:39:05.483Z,11.80
2023-04-30T18:41:07.324Z,11.80
2023-04-30T18:43:09.327Z,11.80
2023-04-30T18:45:12.037Z,11.70
2023-04-30T18:47:14.076Z,11.60
2023-04-30T18:49:15.789Z,11.60
2023-04-30T18:51:17.591Z,11.50
2023-04-30T18:53:19.960Z,11.50
2023-04-30T18:55:21.620Z,11.40
2023-04-30T18:57:23.304Z,11.40
2023-04-30T18:59:27.344Z,11.30
2023-04-30T19:01:29.174Z,11.30
2023-04-30T19:03:31.001Z,11.30
2023-04-30T19:05:35.653Z,11.20
2023-04-30T19:07:37.453Z,11.20
2023-04-30T19:09:39.301Z,11.10
2023-04-30T19:11:41.190Z,11.10
2023-04-30T19:13:42.864Z,11.10
2023-04-30T19:15:45.517Z,11.10
2023-04-30T19:17:47.593Z,11.10
2023-04-30T19:19:50.307Z,11.10
2023-04-30T19:21:53.453Z,11.00
2023-04-30T19:23:55.340Z,11.00
2023-04-30T19:25:58.483Z,11.00
2023-04-30T19:28:00.281Z,11.00
2023-04-30T19:30:02.226Z,11.00
2023-04-30T19:32:04.864Z,11.00
2023-04-30T19:34:06.540Z,10.90
2023-04-30T19:36:08.990Z,10.90
2023-04-30T19:38:10.716Z,10.90
2023-04-30T19:40:12.940Z,10.90
2023-04-30T19:42:15.082Z,10.90
2023-04-30T19:44:18.285Z,10.90
2023-04-30T19:46:21.072Z,10.90
2023-04-30T19:48:23.713Z,10.90
2023-04-30T19:50:25.565Z,10.90
2023-04-30T19:52:27.247Z,10.90
2023-04-30T19:54:28.999Z,11.00
2023-04-30T19:56:31.951Z,10.90
2023-04-30T19:58:33.588Z,10.90
2023-04-30T20:00:41.502Z,10.90
2023-04-30T20:02:43.635Z,10.90
2023-04-30T20:04:45.439Z,10.80
2023-04-30T20:06:48.124Z,10.80
2023-04-30T20:08:49.810Z,10.80
2023-04-30T20:10:52.191Z,10.80
2023-04-30T20:12:54.656Z,10.70
2023-04-30T20:14:56.395Z,10.70
2023-04-30T20:16:58.402Z,10.70
2023-04-30T20:19:00.169Z,10.60
2023-04-30T20:21:01.863Z,10.60
2023-04-30T20:23:14.031Z,10.60
2023-04-30T20:25:15.857Z,10.60
2023-04-30T20:27:17.547Z,10.60
2023-04-30T20:29:20.651Z,10.50
2023-04-30T20:31:22.522Z,10.50
2023-04-30T20:33:25.576Z,10.50
2023-04-30T20:35:27.297Z,10.50
2023-04-30T20:37:29.175Z,10.40
2023-04-30T20:39:30.962Z,10.50
2023-04-30T20:41:32.675Z,10.40
2023-04-30T20:43:34.399Z,10.40
2023-04-30T20:45:36.623Z,10.40
2023-04-30T20:47:39.999Z,10.40
2023-04-30T20:49:43.529Z,10.40
2023-04-30T20:51:45.479Z,10.40
2023-04-30T20:53:47.294Z,10.40
2023-04-30T20:55:48.961Z,10.40
2023-04-30T20:57:51.007Z,10.40
2023-04-30T20:59:52.631Z,10.40
2023-04-30T21:01:54.287Z,10.40
2023-04-30T21:03:55.946Z,10.40
2023-04-30T21:05:57.623Z,10.30
2023-04-30T21:08:02.430Z,10.30
2023-04-30T21:10:08.356Z,10.40
2023-04-30T21:12:10.062Z,10.30
2023-04-30T21:14:11.815Z,10.40
2023-04-30T21:16:13.959Z,10.30
2023-04-30T21:18:16.771Z,10.30
2023-04-30T21:20:18.576Z,10.40
2023-04-30T21:22:20.830Z,10.40
2023-04-30T21:24:22.729Z,10.40
2023-04-30T21:26:24.407Z,10.40
2023-04-30T21:28:26.094Z,10.40
2023-04-30T21:30:27.803Z,10.40
2023-04-30T21:32:29.492Z,10.50
2023-04-30T21:34:32.129Z,10.40
2023-04-30T21:36:35.231Z,10.50
2023-04-30T21:38:37.948Z,10.40
2023-04-30T21:40:42.261Z,10.40
2023-04-30T21:42:43.953Z,10.40
2023-04-30T21:44:45.615Z,10.40
2023-04-30T21:46:47.313Z,10.40
2023-04-30T21:48:49.041Z,10.40
2023-04-30T21:50:50.722Z,10.40
2023-04-30T21:52:52.753Z,10.40
2023-04-30T21:54:54.409Z,10.40
2023-04-30T21:56:56.122Z,10.40
2023-04-30T21:58:58.000Z,10.30
2023-04-30T22:01:00.149Z,10.30
2023-04-30T22:03:02.402Z,10.30
2023-04-30T22:05:04.383Z,10.30
2023-04-30T22:07:06.089Z,10.30
2023-04-30T22:09:07.783Z,10.30
2023-04-30T22:11:09.459Z,10.40
2023-04-30T22:13:11.272Z,10.40
2023-04-30T22:15:13.161Z,10.40
2023-04-30T22:17:14.878Z,10.40
2023-04-30T22:19:17.050Z,10.50
2023-04-30T22:21:18.721Z,10.50
2023-04-30T22:23:23.585Z,10.50
2023-04-30T22:25:25.840Z,10.50
2023-04-30T22:27:27.539Z,10.50
2023-04-30T22:29:29.345Z,10.50
2023-04-30T22:31:31.450Z,10.60
2023-04-30T22:33:37.026Z,10.50
2023-04-30T22:35:39.106Z,10.60
2023-04-30T22:37:40.808Z,10.60
2023-04-30T22:39:42.718Z,10.50
2023-04-30T22:41:47.438Z,10.60
2023-04-30T22:43:49.174Z,10.60
2023-04-30T22:45:51.085Z,10.50
2023-04-30T22:47:53.675Z,10.50
2023-04-30T22:49:56.590Z,10.50
2023-04-30T22:51:58.986Z,10.60
2023-04-30T22:54:00.651Z,10.50
2023-04-30T22:56:02.395Z,10.50
2023-04-30T22:58:04.060Z,10.50
2023-04-30T23:00:06.356Z,10.50
2023-04-30T23:02:08.124Z,10.40
2023-04-30T23:04:09.826Z,10.40
2023-04-30T23:06:11.854Z,10.40
2023-04-30T23:08:13.721Z,10.40
2023-04-30T23:10:18.440Z,10.40
2023-04-30T23:12:20.152Z,10.40
2023-04-30T23:14:22.153Z,10.40
2023-04-30T23:16:23.850Z,10.40
2023-04-30T23:18:26.119Z,10.40
2023-04-30T23:20:28.413Z,10.40
2023-04-30T23:22:30.586Z,10.40
2023-04-30T23:24:35.325Z,10.40
2023-04-30T23:26:37.327Z,10.40
2023-04-30T23:28:39.056Z,10.30
2023-04-30T23:30:40.796Z,10.30
2023-04-30T23:32:42.652Z,10.30
2023-04-30T23:34:44.336Z,10.30
2023-04-30T23:36:46.067Z,10.20
2023-04-30T23:38:47.826Z,10.20
2023-04-30T23:40:49.597Z,10.20
2023-04-30T23:42:51.577Z,10.20
2023-04-30T23:44:53.407Z,10.10
2023-04-30T23:46:55.891Z,10.10
2023-04-30T23:48:57.525Z,10.10
2023-04-30T23:51:04.027Z,10.10
2023-04-30T23:53:05.722Z,10.00
2023-04-30T23:55:08.111Z,10.00
2023-04-30T23:57:10.191Z,10.00
2023-04-30T23:59:12.358Z,10.00
